Time;durP1;ratioP1;P1;durP2;ratioP2;P2;SDS_P1;SDS_P2;PMS_P1;PMS_P2;Temp;Humidity;BMP_temperature;BMP_pressure;BME280_temperature;BME280_humidity;BME280_pressure;Samples;Min_cycle;Max_cycle;Signal;HPM_P1;HPM_P2
2023/09/08 00:04:41;;;;;;;1999.90;999.90;;;;;;;18.49;100.00;101637.00;10540285;28;20048;-69
2023/09/08 00:09:43;;;;;;;1999.90;999.90;;;;;;;18.57;100.00;101631.09;10539400;28;20523;-69
2023/09/08 00:14:46;;;;;;;1999.90;999.90;;;;;;;18.51;100.00;101639.56;10538809;28;20059;-69
2023/09/08 00:19:48;;;;;;;1999.90;999.90;;;;;;;18.53;100.00;101642.91;10539775;28;20044;-69
2023/09/08 00:24:51;;;;;;;1999.90;999.90;;;;;;;18.32;100.00;101650.72;10539844;28;20048;-69
2023/09/08 00:29:53;;;;;;;1999.90;999.90;;;;;;;18.27;100.00;101640.44;10521294;28;20044;-68
2023/09/08 00:34:55;;;;;;;1999.90;999.90;;;;;;;18.24;100.00;101650.44;10538941;28;20131;-69
2023/09/08 00:39:58;;;;;;;1999.90;999.90;;;;;;;18.33;100.00;101647.09;10541956;28;20500;-69
2023/09/08 00:45:00;;;;;;;1999.90;999.90;;;;;;;18.14;100.00;101645.88;10547731;28;20123;-69
2023/09/08 00:50:04;;;;;;;1999.90;999.90;;;;;;;18.05;100.00;101640.41;10546732;28;20552;-69
2023/09/08 00:55:07;;;;;;;1999.90;999.90;;;;;;;18.08;100.00;101645.47;10546016;28;20050;-69
2023/09/08 01:00:11;;;;;;;1999.90;999.90;;;;;;;18.04;100.00;101639.56;10545743;28;20050;-69
2023/09/08 01:05:14;;;;;;;1999.90;999.90;;;;;;;17.96;100.00;101645.44;10546854;28;20102;-69
2023/09/08 01:10:16;;;;;;;1999.90;999.90;;;;;;;17.90;100.00;101634.47;10544802;28;20071;-69
2023/09/08 01:15:19;;;;;;;1999.90;999.90;;;;;;;18.28;100.00;101633.38;10545334;28;20055;-69
2023/09/08 01:20:30;;;;;;;1999.90;999.90;;;;;;;18.07;100.00;101633.19;10546226;28;20053;-69
2023/09/08 01:25:33;;;;;;;;;;;;;;;18.20;100.00;101632.13;10544692;28;20131;-69
2023/09/08 01:30:36;;;;;;;1999.90;999.90;;;;;;;17.99;100.00;101629.31;10527991;28;20006;-69
2023/09/08 01:35:38;;;;;;;1999.90;999.90;;;;;;;17.74;100.00;101635.59;10545638;28;20131;-69
2023/09/08 01:40:40;;;;;;;1999.90;999.90;;;;;;;17.95;100.00;101629.66;10544308;28;20040;-69
2023/09/08 01:45:43;;;;;;;1999.90;999.90;;;;;;;18.03;100.00;101634.41;10545227;28;20044;-69
2023/09/08 01:50:46;;;;;;;1999.90;999.90;;;;;;;17.96;100.00;101628.72;10543857;28;20044;-69
2023/09/08 01:55:48;;;;;;;1999.90;999.90;;;;;;;17.99;100.00;101626.66;10543589;28;20059;-69
2023/09/08 02:00:51;;;;;;;1999.90;999.90;;;;;;;18.27;100.00;101616.59;10544440;28;20048;-69
2023/09/08 02:05:53;;;;;;;1999.90;999.90;;;;;;;18.16;100.00;101616.59;10543434;28;20058;-69
2023/09/08 02:10:56;;;;;;;1999.90;999.90;;;;;;;18.04;100.00;101620.16;10543726;28;20059;-69
2023/09/08 02:15:58;;;;;;;1999.90;999.90;;;;;;;18.11;100.00;101618.75;10544043;28;20044;-69
2023/09/08 02:21:01;;;;;;;1999.90;999.90;;;;;;;17.79;100.00;101627.31;10543716;28;20044;-69
2023/09/08 02:26:03;;;;;;;1999.90;999.90;;;;;;;17.91;100.00;101623.75;10542444;28;20059;-69
2023/09/08 02:31:05;;;;;;;1999.90;999.90;;;;;;;17.61;100.00;101618.91;10542654;28;20056;-69
2023/09/08 02:36:08;;;;;;;1999.90;999.90;;;;;;;17.48;100.00;101624.25;10543328;28;20051;-69
2023/09/08 02:41:10;;;;;;;1999.90;999.90;;;;;;;17.49;100.00;101625.97;10542342;28;20067;-69
2023/09/08 02:46:13;;;;;;;1999.90;999.90;;;;;;;18.07;100.00;101612.84;10542228;28;20048;-68
2023/09/08 02:51:15;;;;;;;1999.90;999.90;;;;;;;17.48;100.00;101621.63;10541446;28;20044;-69
2023/09/08 02:56:18;;;;;;;1999.90;999.90;;;;;;;17.47;100.00;101612.00;10542415;28;20098;-69
2023/09/08 03:01:20;;;;;;;1999.90;999.90;;;;;;;17.62;100.00;101615.31;10541236;28;20574;-69
2023/09/08 03:06:23;;;;;;;1999.90;999.90;;;;;;;17.38;100.00;101613.53;10541986;28;20048;-69
2023/09/08 03:11:25;;;;;;;1999.90;999.90;;;;;;;17.39;100.00;101617.00;10540106;28;20070;-69
2023/09/08 03:16:27;;;;;;;1999.90;999.90;;;;;;;17.21;100.00;101616.53;10541126;28;20048;-69
2023/09/08 03:21:30;;;;;;;1999.90;999.90;;;;;;;17.41;100.00;101621.22;10523420;28;20044;-69
2023/09/08 03:26:33;;;;;;;1999.90;999.90;;;;;;;17.21;100.00;101620.03;10539521;28;20518;-69
2023/09/08 03:31:35;;;;;;;1999.90;999.90;;;;;;;17.17;100.00;101617.72;10540768;28;20079;-69
2023/09/08 03:36:38;;;;;;;1999.90;999.90;;;;;;;17.20;100.00;101607.78;10539271;28;20062;-69
2023/09/08 03:41:40;;;;;;;1999.90;999.90;;;;;;;17.28;100.00;101609.84;10540796;28;20127;-69
2023/09/08 03:46:43;;;;;;;1999.90;999.90;;;;;;;17.44;100.00;101615.69;10522279;28;20048;-69
2023/09/08 03:51:45;;;;;;;1999.90;999.90;;;;;;;17.25;100.00;101607.44;10539734;28;20435;-69
2023/09/08 03:56:47;;;;;;;1999.90;999.90;;;;;;;17.20;100.00;101607.78;10539900;28;20416;-69
2023/09/08 04:01:50;;;;;;;1999.90;999.90;;;;;;;17.33;100.00;101613.03;10539117;28;20074;-69
2023/09/08 04:06:52;;;;;;;1999.90;999.90;;;;;;;17.34;100.00;101608.56;10539654;28;20048;-69
2023/09/08 04:11:55;;;;;;;1999.90;999.90;;;;;;;17.43;100.00;101608.75;10538174;28;20131;-69
2023/09/08 04:16:57;;;;;;;1999.90;999.90;;;;;;;17.37;100.00;101601.25;10547702;28;20051;-69
2023/09/08 04:21:59;;;;;;;1999.90;999.90;;;;;;;17.22;100.00;101611.13;10547324;28;20075;-69
2023/09/08 04:27:02;;;;;;;1999.90;999.90;;;;;;;17.18;100.00;101611.47;10546485;28;20539;-69
2023/09/08 04:32:08;;;;;;;1999.90;999.90;;;;;;;16.95;100.00;101608.69;10547799;28;20052;-69
2023/09/08 04:37:11;;;;;;;1999.90;999.90;;;;;;;16.93;100.00;101612.38;10546880;28;20048;-69
2023/09/08 04:42:13;;;;;;;1999.90;999.90;;;;;;;16.81;100.00;101609.66;10547016;28;20485;-69
2023/09/08 04:47:16;;;;;;;1999.90;999.90;;;;;;;16.69;100.00;101611.34;10546410;28;20093;-69
2023/09/08 04:52:18;;;;;;;1999.90;999.90;;;;;;;16.83;100.00;101606.91;10547400;28;20059;-69
2023/09/08 04:57:20;;;;;;;1999.90;999.90;;;;;;;16.82;100.00;101605.19;10529271;28;20079;-69
2023/09/08 05:02:25;;;;;;;1999.90;999.90;;;;;;;16.58;100.00;101605.97;10547013;28;20040;-69
2023/09/08 05:07:27;;;;;;;1999.90;999.90;;;;;;;16.55;100.00;101611.47;10546766;28;20135;-69
2023/09/08 05:12:30;;;;;;;1999.90;999.90;;;;;;;16.62;100.00;101606.59;10545978;28;20484;-69
2023/09/08 05:17:33;;;;;;;1999.90;999.90;;;;;;;16.58;100.00;101613.06;10546416;28;20079;-69
2023/09/08 05:22:36;;;;;;;1999.90;999.90;;;;;;;16.54;100.00;101612.41;10546215;28;20040;-69
2023/09/08 05:27:38;;;;;;;1999.90;999.90;;;;;;;16.63;100.00;101603.00;10544717;28;20079;-69
2023/09/08 05:32:41;;;;;;;1999.90;999.90;;;;;;;16.80;100.00;101610.59;10544997;28;20489;-69
2023/09/08 05:37:43;;;;;;;1999.90;999.90;;;;;;;16.88;100.00;101612.72;10543832;28;20481;-69
2023/09/08 05:42:46;;;;;;;1999.90;999.90;;;;;;;16.95;100.00;101616.63;10544716;28;20111;-69
2023/09/08 05:47:50;;;;;;;1999.90;999.90;;;;;;;16.82;100.00;101607.84;10544678;28;20404;-69
2023/09/08 05:52:53;;;;;;;1999.90;999.90;;;;;;;17.07;100.00;101615.72;10545089;28;20048;-69
2023/09/08 05:57:55;;;;;;;1999.90;999.90;;;;;;;17.18;100.00;101622.91;10544895;28;20056;-69
2023/09/08 06:02:57;;;;;;;1999.90;999.90;;;;;;;17.51;100.00;101615.25;10544655;28;20076;-69
2023/09/08 06:08:00;;;;;;;1999.90;999.90;;;;;;;17.73;100.00;101619.81;10543888;28;20101;-70
2023/09/08 06:13:09;;;;;;;1999.90;999.90;;;;;;;17.78;100.00;101612.34;10544195;28;20044;-70
2023/09/08 06:18:11;;;;;;;1999.90;999.90;;;;;;;17.97;100.00;101609.19;10543924;28;20054;-70
2023/09/08 06:23:14;;;;;;;1999.90;999.90;;;;;;;18.41;100.00;101618.19;10543670;28;20047;-70
2023/09/08 06:28:17;;;;;;;1999.90;999.90;;;;;;;18.58;100.00;101619.53;10542239;28;20048;-70
2023/09/08 06:33:19;;;;;;;1999.90;999.90;;;;;;;18.85;100.00;101615.69;10542635;28;20063;-70
2023/09/08 06:38:22;;;;;;;1999.90;999.90;;;;;;;18.77;100.00;101607.47;10542638;28;20047;-70
2023/09/08 06:43:24;;;;;;;1999.90;999.90;;;;;;;19.01;99.11;101612.66;10542839;28;20051;-70
2023/09/08 06:48:26;;;;;;;1999.90;999.90;;;;;;;19.22;97.39;101612.75;10542024;28;20044;-70
2023/09/08 06:53:30;;;;;;;1999.90;999.90;;;;;;;19.17;98.26;101620.25;10542291;28;20067;-70
2023/09/08 06:58:33;;;;;;;1999.90;999.90;;;;;;;19.58;96.97;101623.97;10541953;28;20072;-70
2023/09/08 07:03:36;;;;;;;1999.90;999.90;;;;;;;19.63;95.61;101624.41;10540534;28;20048;-70
2023/09/08 07:08:40;;;;;;;1999.90;999.90;;;;;;;19.82;93.52;101629.94;10541836;28;20130;-70
2023/09/08 07:13:42;;;;;;;1999.90;999.90;;;;;;;20.06;91.33;101625.34;10540816;28;20515;-70
2023/09/08 07:18:45;;;;;;;1999.90;999.90;;;;;;;20.23;89.98;101630.06;10541242;28;20048;-70
2023/09/08 07:23:47;;;;;;;1999.90;999.90;;;;;;;20.66;86.99;101618.41;10540924;28;20051;-70
2023/09/08 07:28:49;;;;;;;1999.90;999.90;;;;;;;21.26;83.19;101620.25;10539922;28;20067;-70
2023/09/08 07:33:52;;;;;;;1999.90;999.90;;;;;;;22.00;79.62;101622.34;10538821;28;20052;-70
2023/09/08 07:38:54;;;;;;;1999.90;999.90;;;;;;;22.50;74.87;101618.63;10539815;28;20060;-70
2023/09/08 07:43:56;;;;;;;1999.90;999.90;;;;;;;22.89;75.03;101621.09;10539093;28;20079;-70
2023/09/08 07:49:00;;;;;;;1999.90;999.90;;;;;;;23.39;71.60;101616.31;10538894;28;20096;-70
2023/09/08 07:54:04;;;;;;;1999.90;999.90;;;;;;;23.71;73.59;101627.28;10539151;28;20048;-70
2023/09/08 07:59:06;;;;;;;1999.90;999.90;;;;;;;23.99;71.70;101621.00;10539672;28;20113;-70
2023/09/08 08:04:09;;;;;;;1999.90;999.90;;;;;;;24.32;68.85;101622.06;10522349;28;20044;-70
2023/09/08 08:09:11;;;;;;;1999.90;999.90;;;;;;;24.65;68.71;101616.94;10539991;28;20048;-70
2023/09/08 08:14:14;;;;;;;1999.90;999.90;;;;;;;24.99;67.75;101611.50;10539240;28;20044;-70
2023/09/08 08:19:16;;;;;;;1999.90;999.90;;;;;;;25.61;67.11;101618.34;10539726;28;20055;-70
2023/09/08 08:24:19;;;;;;;1999.90;999.90;;;;;;;25.38;66.63;101627.00;10504672;28;20055;-70
2023/09/08 08:29:21;;;;;;;1999.90;999.90;;;;;;;26.30;66.89;101612.56;10538325;28;20056;-70
2023/09/08 08:34:24;;;;;;;1999.90;999.90;;;;;;;25.99;66.48;101617.84;10537511;28;20070;-70
2023/09/08 08:39:27;;;;;;;1999.90;999.90;;;;;;;26.44;66.12;101617.22;10537490;28;20066;-70
2023/09/08 08:44:30;;;;;;;1999.90;999.90;;;;;;;27.08;64.92;101615.44;10538154;28;20051;-70
2023/09/08 08:49:46;;;;;;;1999.90;999.90;;;;;;;27.02;62.51;101609.78;10494584;28;20425;-71
2023/09/08 08:54:48;;;;;;;1999.90;999.90;;;;;;;27.30;63.62;101616.50;10496238;28;20056;-70
2023/09/08 08:59:51;;;;;;;1999.90;999.90;;;;;;;27.54;62.69;101619.03;10499160;28;20072;-70
2023/09/08 09:04:54;;;;;;;1999.90;999.90;;;;;;;28.21;60.96;101624.66;10503605;28;20136;-71
2023/09/08 09:09:57;;;;;;;1999.90;999.90;;;;;;;28.84;59.79;101611.63;10504796;28;20123;-71
2023/09/08 09:14:59;;;;;;;1999.90;999.90;;;;;;;29.14;60.22;101608.88;10502687;28;20584;-70
2023/09/08 09:20:17;;;;;;;1999.90;999.90;;;;;;;29.13;59.27;101604.50;10485899;28;20487;-71
2023/09/08 09:25:30;;;;;;;1999.90;999.90;;;;;;;29.26;57.51;101610.88;10503004;28;20052;-71
2023/09/08 09:30:51;;;;;;;1999.90;999.90;;;;;;;30.34;54.50;101612.56;10502049;28;20394;-71
2023/09/08 09:35:54;;;;;;;;;;;;;;;31.11;56.49;101610.59;10504086;28;20055;-71
2023/09/08 09:40:57;;;;;;;1999.90;999.90;;;;;;;30.43;54.92;101600.59;10502163;28;20007;-71
2023/09/08 09:45:59;;;;;;;1999.90;999.90;;;;;;;31.20;54.60;101611.25;10501704;28;20052;-71
2023/09/08 09:51:19;;;;;;;1999.90;999.90;;;;;;;32.23;51.26;101608.13;10503087;28;20076;-71
2023/09/08 09:56:25;;;;;;;1999.90;999.90;;;;;;;32.36;51.78;101609.97;10501170;28;20464;-71
2023/09/08 10:01:28;;;;;;;1999.90;999.90;;;;;;;32.21;50.81;101604.78;10501805;28;20505;-71
2023/09/08 10:06:35;;;;;;;1999.90;999.90;;;;;;;32.26;50.38;101602.28;10501242;28;20109;-71
2023/09/08 10:11:48;;;;;;;1999.90;999.90;;;;;;;32.44;48.89;101607.00;10501122;28;20041;-71
2023/09/08 10:16:55;;;;;;;1999.90;999.90;;;;;;;33.14;49.20;101593.53;10484422;28;20094;-71
2023/09/08 10:22:02;;;;;;;1999.90;999.90;;;;;;;33.07;49.95;101587.34;10500569;28;20052;-71
2023/09/08 10:27:11;;;;;;;1999.90;999.90;;;;;;;33.92;47.98;101596.88;10500488;28;20080;-71
2023/09/08 10:32:14;;;;;;;1999.90;999.90;;;;;;;34.70;46.15;101584.50;10500221;28;20126;-71
2023/09/08 10:37:21;;;;;;;1999.90;999.90;;;;;;;34.23;45.59;101585.09;10483510;28;20052;-72
2023/09/08 10:42:26;;;;;;;1999.90;999.90;;;;;;;34.67;48.79;101582.25;10499087;28;20053;-71
2023/09/08 10:47:41;;;;;;;1999.90;999.90;;;;;;;34.98;43.99;101574.91;10498706;28;20164;-72
2023/09/08 10:52:44;;;;;;;1999.90;999.90;;;;;;;35.10;45.97;101586.66;10498676;28;20390;-71
2023/09/08 10:57:46;;;;;;;1999.90;999.90;;;;;;;36.19;42.43;101588.13;10482642;28;20045;-71
2023/09/08 11:02:54;;;;;;;1999.90;999.90;;;;;;;34.82;43.32;101584.56;10499342;28;20481;-71
2023/09/08 11:07:57;;;;;;;1999.90;999.90;;;;;;;36.48;43.86;101585.47;10499875;28;20048;-72
2023/09/08 11:13:00;;;;;;;1999.90;999.90;;;;;;;35.45;43.57;101572.28;10481949;28;20044;-71
2023/09/08 11:18:06;;;;;;;1999.90;999.90;;;;;;;35.11;42.69;101582.88;10496168;28;20053;-72
2023/09/08 11:23:09;;;;;;;1999.90;999.90;;;;;;;36.14;41.52;101579.03;10497863;28;20044;-71
2023/09/08 11:28:13;;;;;;;1999.90;999.90;;;;;;;36.62;43.95;101580.56;10485611;28;20422;-72
2023/09/08 11:33:16;;;;;;;1999.90;999.90;;;;;;;35.24;45.89;101571.00;10455794;28;20459;-72
2023/09/08 11:38:26;;;;;;;1999.90;999.90;;;;;;;35.72;44.89;101575.41;10439715;28;20133;-71
2023/09/08 11:43:29;;;;;;;1999.90;999.90;;;;;;;36.00;43.66;101564.84;10456071;28;20091;-72
2023/09/08 11:48:32;;;;;;;1999.90;999.90;;;;;;;34.69;43.63;101571.97;10455168;28;20061;-72
2023/09/08 11:53:36;;;;;;;1999.90;999.90;;;;;;;35.71;44.48;101576.44;10455751;28;20049;-72
2023/09/08 11:58:38;;;;;;;1999.90;999.90;;;;;;;36.12;41.83;101573.00;10455830;28;20045;-72
2023/09/08 12:03:54;;;;;;;1999.90;999.90;;;;;;;35.71;43.51;101570.19;10456003;28;20509;-71
2023/09/08 12:09:02;;;;;;;1999.90;999.90;;;;;;;34.04;46.43;101567.09;10455488;28;20048;-71
2023/09/08 12:14:08;;;;;;;1999.90;999.90;;;;;;;35.26;43.72;101562.59;10455455;28;20102;-71
2023/09/08 12:19:30;;;;;;;1999.90;999.90;;;;;;;34.01;44.45;101557.53;10455880;28;20482;-71
2023/09/08 12:24:56;;;;;;;1999.90;999.90;;;;;;;35.31;43.17;101557.28;10455315;28;20045;-71
2023/09/08 12:30:00;;;;;;;1999.90;999.90;;;;;;;36.40;42.22;101558.59;10456302;28;20087;-71
2023/09/08 12:35:04;;;;;;;1999.90;999.90;;;;;;;35.29;44.21;101557.50;10456876;28;20061;-71
2023/09/08 12:40:07;;;;;;;1999.90;999.90;;;;;;;35.69;43.97;101550.50;10463614;28;20048;-72
2023/09/08 12:45:10;;;;;;;1999.90;999.90;;;;;;;35.05;41.82;101544.88;10463940;28;20056;-72
2023/09/08 12:50:15;;;;;;;1999.90;999.90;;;;;;;35.23;44.47;101544.81;10463414;28;20056;-71
2023/09/08 12:55:18;;;;;;;1999.90;999.90;;;;;;;35.48;42.12;101547.31;10463143;28;20482;-72
2023/09/08 13:00:22;;;;;;;1999.90;999.90;;;;;;;35.16;42.39;101547.63;10463592;28;20128;-72
2023/09/08 13:05:24;;;;;;;1999.90;999.90;;;;;;;34.67;42.40;101535.19;10463402;28;20044;-71
2023/09/08 13:10:27;;;;;;;1999.90;999.90;;;;;;;36.32;42.90;101534.47;10462581;28;20048;-72
2023/09/08 13:15:29;;;;;;;1999.90;999.90;;;;;;;33.96;45.14;101535.66;10461860;28;20049;-72
2023/09/08 13:20:32;;;;;;;1999.90;999.90;;;;;;;35.05;44.83;101526.66;10461680;28;20059;-71
2023/09/08 13:25:34;;;;;;;1999.90;999.90;;;;;;;36.57;43.14;101523.19;10462687;28;20056;-71
2023/09/08 13:30:37;;;;;;;1999.90;999.90;;;;;;;35.61;43.34;101529.06;10462461;28;20045;-70
2023/09/08 13:35:39;;;;;;;1999.90;999.90;;;;;;;35.75;41.27;101524.25;10462225;28;20045;-70
2023/09/08 13:40:41;;;;;;;1999.90;999.90;;;;;;;35.48;41.97;101513.84;10461366;28;20576;-71
2023/09/08 13:45:44;;;;;;;1999.90;999.90;;;;;;;36.11;42.47;101514.91;10459587;28;20084;-71
2023/09/08 13:50:46;;;;;;;1999.90;999.90;;;;;;;34.39;46.60;101512.16;10461024;28;20049;-70
2023/09/08 13:55:51;;;;;;;1999.90;999.90;;;;;;;35.52;45.86;101512.28;10461458;28;20053;-71
2023/09/08 14:00:54;;;;;;;1999.90;999.90;;;;;;;36.87;40.49;101517.50;10460581;28;20474;-71
2023/09/08 14:06:01;;;;;;;1999.90;999.90;;;;;;;35.24;43.96;101507.53;10444167;28;20048;-71
2023/09/08 14:11:12;;;;;;;1999.90;999.90;;;;;;;36.53;42.21;101505.66;10460272;28;20064;-71
2023/09/08 14:16:19;;;;;;;1999.90;999.90;;;;;;;36.01;44.47;101510.13;10443444;28;20045;-71
2023/09/08 14:21:21;;;;;;;1999.90;999.90;;;;;;;35.09;45.82;101495.22;10459253;28;20099;-71
2023/09/08 14:26:24;;;;;;;1999.90;999.90;;;;;;;35.77;45.06;101506.59;10458506;28;20511;-72
2023/09/08 14:31:27;;;;;;;1999.90;999.90;;;;;;;35.80;44.61;101495.22;10459469;28;20405;-71
2023/09/08 14:36:29;;;;;;;1999.90;999.90;;;;;;;34.95;44.94;101496.50;10459967;28;20056;-71
2023/09/08 14:41:31;;;;;;;1999.90;999.90;;;;;;;34.50;46.28;101492.34;10459608;28;20107;-71
2023/09/08 14:46:34;;;;;;;1999.90;999.90;;;;;;;35.11;46.02;101495.81;10457838;28;20064;-71
2023/09/08 14:51:36;;;;;;;1999.90;999.90;;;;;;;35.35;45.14;101491.22;10458682;28;20051;-71
2023/09/08 14:56:39;;;;;;;1999.90;999.90;;;;;;;34.83;47.42;101488.31;10458737;28;20055;-72
2023/09/08 15:01:43;;;;;;;1999.90;999.90;;;;;;;34.10;47.78;101481.16;10457059;28;20405;-71
2023/09/08 15:06:45;;;;;;;1999.90;999.90;;;;;;;34.04;48.45;101480.16;10456980;28;20387;-71
2023/09/08 15:11:48;;;;;;;1999.90;999.90;;;;;;;35.40;48.22;101485.06;10440904;28;20095;-71
2023/09/08 15:16:50;;;;;;;1999.90;999.90;;;;;;;35.42;44.77;101479.38;10457162;28;20094;-71
2023/09/08 15:21:52;;;;;;;1999.90;999.90;;;;;;;33.75;49.94;101477.16;10458016;28;20052;-71
2023/09/08 15:26:57;;;;;;;1999.90;999.90;;;;;;;34.19;49.04;101482.50;10457286;28;20508;-71
2023/09/08 15:32:00;;;;;;;1999.90;999.90;;;;;;;34.42;49.38;101479.06;10457784;28;20098;-71
2023/09/08 15:37:03;;;;;;;1999.90;999.90;;;;;;;33.85;51.20;101476.66;10457635;28;20059;-71
2023/09/08 15:42:06;;;;;;;1999.90;999.90;;;;;;;33.68;52.20;101479.97;10439027;28;20091;-71
2023/09/08 15:47:08;;;;;;;1999.90;999.90;;;;;;;32.93;53.55;101467.28;10455681;28;20057;-71
2023/09/08 15:52:11;;;;;;;1999.90;999.90;;;;;;;31.86;56.68;101480.53;10455457;28;20482;-70
2023/09/08 15:57:18;;;;;;;1999.90;999.90;;;;;;;31.69;58.08;101469.34;10457092;28;20048;-70
2023/09/08 16:02:20;;;;;;;1999.90;999.90;;;;;;;31.66;60.06;101480.56;10455687;28;20041;-70
2023/09/08 16:07:24;;;;;;;1999.90;999.90;;;;;;;31.63;61.68;101483.69;10456171;28;20053;-70
2023/09/08 16:12:26;;;;;;;1999.90;999.90;;;;;;;31.27;62.94;101472.28;10455909;28;20045;-71
2023/09/08 16:17:28;;;;;;;1999.90;999.90;;;;;;;30.71;66.32;101464.53;10456052;28;20057;-71
2023/09/08 16:22:31;;;;;;;1999.90;999.90;;;;;;;29.68;71.86;101469.91;10455865;28;20490;-71
2023/09/08 16:27:33;;;;;;;1999.90;999.90;;;;;;;29.29;72.77;101466.75;10454673;28;20057;-71
2023/09/08 16:32:36;;;;;;;1999.90;999.90;;;;;;;28.76;77.11;101459.00;10456390;28;20082;-71
2023/09/08 16:37:38;;;;;;;1999.90;999.90;;;;;;;28.25;79.01;101467.94;10455642;28;20440;-70
2023/09/08 16:42:41;;;;;;;1999.90;999.90;;;;;;;27.91;82.91;101474.75;10455497;28;20508;-70
2023/09/08 16:47:43;;;;;;;1999.90;999.90;;;;;;;27.19;87.41;101476.13;10455322;28;20526;-71
2023/09/08 16:52:46;;;;;;;1999.90;999.90;;;;;;;27.04;89.30;101480.63;10455367;28;20056;-71
2023/09/08 16:57:48;;;;;;;1999.90;999.90;;;;;;;27.01;87.99;101473.72;10455254;28;20452;-71
2023/09/08 17:02:51;;;;;;;1999.90;999.90;;;;;;;26.96;88.46;101480.69;10455706;28;20040;-70
2023/09/08 17:07:56;;;;;;;1999.90;999.90;;;;;;;26.55;91.56;101479.06;10455110;28;20053;-71
2023/09/08 17:12:58;;;;;;;1999.90;999.90;;;;;;;26.45;91.28;101471.25;10456159;28;20474;-70
2023/09/08 17:18:01;;;;;;;1999.90;999.90;;;;;;;26.27;92.59;101473.34;10455634;28;20083;-71
2023/09/08 17:23:05;;;;;;;1999.90;999.90;;;;;;;26.25;91.87;101470.84;10459435;28;20052;-71
2023/09/08 17:28:07;;;;;;;1999.90;999.90;;;;;;;26.07;92.68;101475.63;10461562;28;20049;-70
2023/09/08 17:33:09;;;;;;;1999.90;999.90;;;;;;;25.98;91.57;101469.44;10461877;28;20441;-70
2023/09/08 17:38:12;;;;;;;1999.90;999.90;;;;;;;25.82;93.09;101472.97;10462382;28;20079;-70
2023/09/08 17:43:14;;;;;;;1999.90;999.90;;;;;;;25.54;93.79;101475.25;10462061;28;20103;-71
2023/09/08 17:48:17;;;;;;;1999.90;999.90;;;;;;;25.18;96.74;101479.09;10461473;28;20057;-71
2023/09/08 17:53:19;;;;;;;1999.90;999.90;;;;;;;24.93;98.21;101483.63;10460029;28;20132;-71
2023/09/08 17:58:21;;;;;;;1999.90;999.90;;;;;;;24.70;99.81;101487.94;10461622;28;20049;-70
2023/09/08 18:03:24;;;;;;;1999.90;999.90;;;;;;;24.69;99.51;101486.25;10460131;28;20055;-70
2023/09/08 18:08:27;;;;;;;1999.90;999.90;;;;;;;24.70;97.89;101487.94;10461162;28;20049;-70
2023/09/08 18:13:29;;;;;;;1999.90;999.90;;;;;;;24.46;99.84;101489.47;10459873;28;20049;-71
2023/09/08 18:18:32;;;;;;;1999.90;999.90;;;;;;;24.51;99.22;101494.34;10460916;28;20055;-70
2023/09/08 18:23:35;;;;;;;1999.90;999.90;;;;;;;24.14;100.00;101493.75;10460554;28;20106;-70
2023/09/08 18:28:38;;;;;;;1999.90;999.90;;;;;;;23.82;100.00;101500.59;10460430;28;20056;-70
2023/09/08 18:33:40;;;;;;;1999.90;999.90;;;;;;;23.88;100.00;101504.47;10458727;28;20413;-70
2023/09/08 18:38:43;;;;;;;1999.90;999.90;;;;;;;23.78;100.00;101509.06;10460112;28;20052;-70
2023/09/08 18:43:46;;;;;;;1999.90;999.90;;;;;;;23.66;100.00;101516.50;10459739;28;20048;-70
2023/09/08 18:48:48;;;;;;;1999.90;999.90;;;;;;;23.71;100.00;101517.69;10457634;28;20494;-70
2023/09/08 18:53:51;;;;;;;1999.90;999.90;;;;;;;23.54;100.00;101523.94;10441925;28;20132;-70
2023/09/08 18:58:53;;;;;;;1999.90;999.90;;;;;;;23.47;100.00;101529.06;10457350;28;20581;-70
2023/09/08 19:03:55;;;;;;;1999.90;999.90;;;;;;;23.32;100.00;101531.44;10458884;28;20049;-70
2023/09/08 19:08:58;;;;;;;1999.90;999.90;;;;;;;23.15;100.00;101530.44;10457023;28;20049;-70
2023/09/08 19:14:00;;;;;;;1999.90;999.90;;;;;;;23.12;100.00;101532.59;10458630;28;20048;-70
2023/09/08 19:19:03;;;;;;;1999.90;999.90;;;;;;;23.06;100.00;101534.03;10458395;28;20055;-70
2023/09/08 19:24:05;;;;;;;1999.90;999.90;;;;;;;23.04;100.00;101541.31;10457025;28;20127;-70
2023/09/08 19:29:08;;;;;;;1999.90;999.90;;;;;;;22.95;100.00;101543.06;10457461;28;20502;-70
2023/09/08 19:34:10;;;;;;;1999.90;999.90;;;;;;;22.92;100.00;101545.22;10457595;28;20076;-70
2023/09/08 19:39:12;;;;;;;1999.90;999.90;;;;;;;22.90;100.00;101545.34;10457758;28;20057;-70
2023/09/08 19:44:15;;;;;;;1999.90;999.90;;;;;;;22.70;100.00;101539.31;10457498;28;20076;-70
2023/09/08 19:49:17;;;;;;;1999.90;999.90;;;;;;;22.61;100.00;101545.53;10455319;28;20413;-70
2023/09/08 19:54:19;;;;;;;1999.90;999.90;;;;;;;22.50;100.00;101540.41;10456255;28;20049;-70
2023/09/08 19:59:22;;;;;;;1999.90;999.90;;;;;;;22.65;100.00;101540.75;10456561;28;20049;-70
2023/09/08 20:04:24;;;;;;;1999.90;999.90;;;;;;;22.43;100.00;101540.16;10457017;28;20128;-70
2023/09/08 20:09:28;;;;;;;1999.90;999.90;;;;;;;22.35;100.00;101537.38;10455127;28;20052;-70
2023/09/08 20:14:31;;;;;;;1999.90;999.90;;;;;;;22.23;100.00;101532.19;10455118;28;20504;-70
2023/09/08 20:19:33;;;;;;;1999.90;999.90;;;;;;;22.15;100.00;101537.41;10456072;28;20406;-70
2023/09/08 20:24:35;;;;;;;1999.90;999.90;;;;;;;22.17;100.00;101529.28;10454832;28;20115;-70
2023/09/08 20:29:38;;;;;;;1999.90;999.90;;;;;;;22.03;100.00;101533.25;10455978;28;20486;-70
2023/09/08 20:34:41;;;;;;;1999.90;999.90;;;;;;;21.93;100.00;101527.94;10455801;28;20095;-70
2023/09/08 20:39:43;;;;;;;1999.90;999.90;;;;;;;21.97;100.00;101536.50;10456388;28;20049;-70
2023/09/08 20:44:46;;;;;;;1999.90;999.90;;;;;;;21.97;100.00;101539.16;10454939;28;20045;-70
2023/09/08 20:49:48;;;;;;;1999.90;999.90;;;;;;;22.00;100.00;101534.38;10455457;28;20057;-70
2023/09/08 20:54:50;;;;;;;1999.90;999.90;;;;;;;21.83;100.00;101527.13;10455861;28;20053;-70
2023/09/08 20:59:53;;;;;;;1999.90;999.90;;;;;;;21.67;100.00;101527.72;10473300;22;20049;-71
2023/09/08 21:04:55;;;;;;;1999.90;999.90;;;;;;;21.65;100.00;101527.03;10545108;28;20044;-71
2023/09/08 21:09:57;;;;;;;1999.90;999.90;;;;;;;21.73;100.00;101513.84;10546117;28;20606;-71
2023/09/08 21:15:00;;;;;;;1999.90;999.90;;;;;;;21.62;100.00;101520.19;10544773;28;20194;-70
2023/09/08 21:20:04;;;;;;;1999.90;999.90;;;;;;;21.57;100.00;101516.25;10546330;28;20083;-70
2023/09/08 21:25:06;;;;;;;1999.90;999.90;;;;;;;21.60;100.00;101514.16;10544984;28;20221;-70
2023/09/08 21:30:09;;;;;;;1999.90;999.90;;;;;;;21.49;100.00;101528.44;10546325;28;20084;-70
2023/09/08 21:35:11;;;;;;;1999.90;999.90;;;;;;;21.26;100.00;101521.72;10544564;28;20048;-70
2023/09/08 21:40:15;;;;;;;1999.90;999.90;;;;;;;21.21;100.00;101527.44;10545579;28;20123;-70
2023/09/08 21:45:18;;;;;;;1999.90;999.90;;;;;;;21.12;100.00;101528.31;10545261;28;20044;-70
2023/09/08 21:50:21;;;;;;;1999.90;999.90;;;;;;;21.12;100.00;101531.78;10545154;28;20052;-70
2023/09/08 21:55:24;;;;;;;1999.90;999.90;;;;;;;21.13;100.00;101528.16;10544946;28;20044;-70